createdAt,value
2023-05-19T00:01:07.310Z,17.30
2023-05-19T00:03:37.405Z,14.80
2023-05-19T00:06:06.832Z,17.30
2023-05-19T00:08:35.895Z,11.97
2023-05-19T00:11:04.770Z,14.30
2023-05-19T00:13:34.550Z,13.70
2023-05-19T00:16:06.078Z,14.10
2023-05-19T00:18:35.052Z,9.37
2023-05-19T00:21:03.380Z,14.37
2023-05-19T00:23:32.026Z,12.77
2023-05-19T00:26:00.409Z,16.57
2023-05-19T00:28:28.925Z,16.83
2023-05-19T00:30:57.218Z,15.00
2023-05-19T00:33:27.306Z,11.83
2023-05-19T00:35:55.590Z,13.70
2023-05-19T00:38:24.129Z,21.03
2023-05-19T00:40:52.753Z,13.43
2023-05-19T00:43:21.378Z,15.67
2023-05-19T00:45:49.773Z,19.93
2023-05-19T00:48:18.512Z,14.67
2023-05-19T00:50:48.246Z,16.77
2023-05-19T00:53:19.688Z,18.77
2023-05-19T00:55:49.128Z,13.87
2023-05-19T00:58:18.146Z,16.27
2023-05-19T01:00:47.105Z,14.40
2023-05-19T01:03:20.564Z,11.90
2023-05-19T01:05:53.644Z,13.63
2023-05-19T01:08:22.261Z,13.37
2023-05-19T01:10:50.859Z,12.90
2023-05-19T01:13:19.498Z,16.87
2023-05-19T01:16:01.018Z,13.90
2023-05-19T01:18:42.642Z,10.00
2023-05-19T01:21:49.177Z,14.83
2023-05-19T01:24:35.268Z,13.27
2023-05-19T01:27:25.047Z,13.73
2023-05-19T01:30:16.372Z,16.77
2023-05-19T01:32:46.607Z,11.80
2023-05-19T01:35:17.792Z,16.23
2023-05-19T01:37:47.680Z,12.83
2023-05-19T01:40:16.904Z,17.23
2023-05-19T01:42:46.404Z,18.10
2023-05-19T01:45:17.928Z,13.57
2023-05-19T01:47:53.307Z,11.97
2023-05-19T01:50:22.322Z,14.87
2023-05-19T01:52:51.781Z,17.03
2023-05-19T01:55:21.236Z,20.90
2023-05-19T01:58:01.870Z,25.27
2023-05-19T02:00:47.253Z,16.50
2023-05-19T02:03:27.596Z,25.93
2023-05-19T02:06:04.890Z,19.93
2023-05-19T02:08:44.784Z,24.53
2023-05-19T02:11:21.683Z,19.80
2023-05-19T02:13:54.307Z,16.13
2023-05-19T02:16:28.680Z,20.63
2023-05-19T02:18:57.369Z,19.30
2023-05-19T02:21:26.538Z,25.80
2023-05-19T02:23:56.635Z,18.27
2023-05-19T02:26:26.176Z,15.40
2023-05-19T02:28:55.099Z,25.40
2023-05-19T02:31:25.234Z,22.80
2023-05-19T02:33:53.714Z,19.87
2023-05-19T02:36:22.290Z,31.20
2023-05-19T02:38:51.306Z,22.40
2023-05-19T02:41:19.941Z,25.37
2023-05-19T02:43:48.311Z,25.40
2023-05-19T02:46:17.035Z,22.43
2023-05-19T02:48:46.747Z,27.13
2023-05-19T02:51:15.339Z,19.10
2023-05-19T02:53:44.242Z,18.77
2023-05-19T02:56:12.921Z,19.63
2023-05-19T02:58:43.066Z,21.47
2023-05-19T03:01:12.819Z,20.83
2023-05-19T03:03:41.158Z,19.60
2023-05-19T03:06:11.277Z,24.63
2023-05-19T03:08:41.631Z,19.37
2023-05-19T03:11:11.189Z,17.93
2023-05-19T03:13:39.415Z,14.70
2023-05-19T03:16:08.438Z,25.90
2023-05-19T03:18:37.218Z,23.10
2023-05-19T03:21:06.153Z,17.83
2023-05-19T03:23:35.805Z,23.13
2023-05-19T03:26:04.410Z,22.23
2023-05-19T03:28:32.779Z,19.03
2023-05-19T03:31:01.402Z,24.97
2023-05-19T03:33:35.046Z,16.37
2023-05-19T03:36:04.580Z,19.87
2023-05-19T03:38:38.281Z,28.13
2023-05-19T03:41:07.053Z,22.70
2023-05-19T03:43:36.031Z,20.93
2023-05-19T03:46:07.247Z,26.23
2023-05-19T03:48:58.419Z,20.63
2023-05-19T03:51:50.082Z,21.67
2023-05-19T03:54:39.973Z,24.47
2023-05-19T03:57:08.681Z,24.67
2023-05-19T03:59:37.262Z,24.53
2023-05-19T04:02:08.151Z,23.87
2023-05-19T04:04:37.359Z,18.70
2023-05-19T04:07:07.152Z,23.63
2023-05-19T04:09:35.608Z,18.17
2023-05-19T04:12:06.102Z,21.63
2023-05-19T04:14:34.379Z,24.90
2023-05-19T04:17:02.883Z,23.97
2023-05-19T04:19:31.269Z,22.50
2023-05-19T04:21:59.934Z,19.73
2023-05-19T04:24:28.265Z,20.67
2023-05-19T04:27:02.412Z,27.60
2023-05-19T04:29:32.641Z,20.13
2023-05-19T04:32:01.959Z,15.40
2023-05-19T04:34:30.719Z,25.17
2023-05-19T04:36:59.389Z,21.57
2023-05-19T04:39:28.246Z,24.07
2023-05-19T04:41:56.873Z,25.43
2023-05-19T04:44:25.513Z,25.47
2023-05-19T04:46:58.426Z,24.50
2023-05-19T04:49:27.088Z,24.43
2023-05-19T04:51:56.606Z,21.03
2023-05-19T04:54:29.134Z,34.80
2023-05-19T04:56:58.072Z,23.13
2023-05-19T04:59:29.302Z,24.93
2023-05-19T05:01:59.724Z,17.63
2023-05-19T05:04:30.958Z,25.67
2023-05-19T05:06:59.605Z,22.83
2023-05-19T05:09:28.056Z,17.67
2023-05-19T05:11:59.412Z,18.77
2023-05-19T05:14:28.588Z,23.07
2023-05-19T05:16:59.313Z,17.30
2023-05-19T05:19:28.452Z,24.00
2023-05-19T05:21:58.507Z,21.07
2023-05-19T05:24:27.819Z,17.47
2023-05-19T05:27:01.371Z,21.17
2023-05-19T05:29:32.934Z,20.33
2023-05-19T05:32:04.556Z,21.37
2023-05-19T05:34:33.213Z,19.90
2023-05-19T05:37:01.987Z,21.53
2023-05-19T05:39:31.744Z,21.10
2023-05-19T05:42:00.991Z,21.90
2023-05-19T05:44:29.305Z,27.80
2023-05-19T05:46:59.918Z,22.03
2023-05-19T05:49:30.931Z,21.73
2023-05-19T05:54:33.135Z,20.93
2023-05-19T05:57:02.608Z,19.83
2023-05-19T05:59:33.793Z,25.42
2023-05-19T06:02:02.960Z,18.45
2023-05-19T06:04:33.639Z,17.43
2023-05-19T06:07:02.352Z,18.60
2023-05-19T06:09:34.820Z,22.85
2023-05-19T06:12:06.587Z,20.60
2023-05-19T06:14:40.589Z,21.52
2023-05-19T06:17:17.456Z,19.00
2023-05-19T06:19:47.299Z,22.67
2023-05-19T06:22:16.854Z,17.05
2023-05-19T06:24:45.826Z,15.80
2023-05-19T06:27:15.103Z,26.52
2023-05-19T06:29:43.383Z,17.70
2023-05-19T06:32:12.381Z,15.65
2023-05-19T06:34:41.469Z,21.25
2023-05-19T06:37:14.852Z,20.52
2023-05-19T06:39:43.100Z,20.23
2023-05-19T06:42:11.773Z,19.23
2023-05-19T06:44:53.535Z,13.98
2023-05-19T06:47:22.228Z,14.82
2023-05-19T06:49:55.045Z,18.90
2023-05-19T06:52:28.299Z,13.88
2023-05-19T06:54:56.793Z,22.33
2023-05-19T06:57:25.568Z,18.95
2023-05-19T06:59:54.173Z,16.25
2023-05-19T07:02:22.998Z,19.98
2023-05-19T07:04:51.609Z,16.23
2023-05-19T07:07:20.494Z,16.60
2023-05-19T07:09:50.560Z,14.68
2023-05-19T07:12:19.728Z,13.73
2023-05-19T07:14:48.178Z,13.18
2023-05-19T07:17:18.743Z,15.63
2023-05-19T07:19:47.654Z,14.80
2023-05-19T07:22:16.584Z,12.88
2023-05-19T07:24:45.024Z,13.82
2023-05-19T07:27:15.155Z,13.63
2023-05-19T07:29:43.364Z,14.35
2023-05-19T07:32:12.182Z,13.95
2023-05-19T07:34:41.309Z,20.17
2023-05-19T07:37:10.351Z,17.20
2023-05-19T07:39:38.714Z,14.48
2023-05-19T07:42:07.452Z,22.67
2023-05-19T07:44:37.337Z,15.35
2023-05-19T07:47:06.592Z,12.48
2023-05-19T07:49:34.952Z,20.33
2023-05-19T07:52:03.799Z,15.52
2023-05-19T07:54:32.070Z,17.85
2023-05-19T07:57:01.035Z,16.75
2023-05-19T07:59:29.437Z,16.02
2023-05-19T08:02:00.122Z,14.23
2023-05-19T08:04:28.806Z,24.73
2023-05-19T08:06:57.559Z,19.85
2023-05-19T08:09:26.079Z,16.88
2023-05-19T08:11:54.868Z,18.08
2023-05-19T08:14:23.196Z,17.65
2023-05-19T08:16:52.093Z,26.20
2023-05-19T08:19:21.921Z,19.20
2023-05-19T08:21:50.931Z,18.75
2023-05-19T08:24:19.290Z,15.18
2023-05-19T08:26:48.106Z,35.00
2023-05-19T08:29:16.474Z,19.70
2023-05-19T08:31:45.076Z,16.55
2023-05-19T08:34:13.504Z,20.88
2023-05-19T08:36:45.245Z,16.92
2023-05-19T08:39:16.253Z,17.98
2023-05-19T08:41:45.567Z,15.93
2023-05-19T08:44:14.983Z,12.13
2023-05-19T08:46:44.316Z,15.10
2023-05-19T08:49:16.062Z,20.20
2023-05-19T08:51:50.010Z,15.27
2023-05-19T08:54:20.738Z,11.60
2023-05-19T08:56:50.029Z,18.05
2023-05-19T08:59:19.577Z,13.00
2023-05-19T09:01:50.098Z,22.98
2023-05-19T09:04:18.905Z,15.30
2023-05-19T09:06:50.312Z,13.80
2023-05-19T09:09:18.782Z,12.75
2023-05-19T09:11:47.958Z,12.15
2023-05-19T09:14:16.283Z,12.52
2023-05-19T09:16:49.795Z,16.33
2023-05-19T09:19:18.323Z,14.10
2023-05-19T09:21:58.628Z,12.95
2023-05-19T09:24:27.206Z,14.38
2023-05-19T09:26:59.237Z,9.82
2023-05-19T09:29:28.539Z,8.50
2023-05-19T09:32:01.594Z,14.20
2023-05-19T09:34:30.111Z,14.30
2023-05-19T09:37:00.824Z,13.98
2023-05-19T09:39:29.824Z,13.27
2023-05-19T09:41:58.938Z,14.98
2023-05-19T09:44:29.827Z,12.55
2023-05-19T09:46:59.799Z,12.93
2023-05-19T09:49:29.673Z,10.23
2023-05-19T09:52:01.091Z,15.30
2023-05-19T09:54:32.254Z,11.65
2023-05-19T09:57:02.201Z,12.77
2023-05-19T09:59:33.464Z,13.52
2023-05-19T10:02:03.380Z,16.58
2023-05-19T10:04:32.758Z,10.55
2023-05-19T10:07:05.705Z,11.80
2023-05-19T10:09:35.130Z,12.93
2023-05-19T10:12:04.400Z,11.95
2023-05-19T10:14:32.870Z,12.38
2023-05-19T10:17:01.580Z,13.80
2023-05-19T10:19:30.293Z,13.55
2023-05-19T10:21:59.012Z,13.77
2023-05-19T10:24:28.788Z,17.02
2023-05-19T10:27:03.508Z,14.95
2023-05-19T10:29:36.508Z,10.82
2023-05-19T10:32:11.439Z,15.70
2023-05-19T10:35:10.552Z,15.48
2023-05-19T10:37:46.619Z,10.60
2023-05-19T10:40:23.089Z,12.32
2023-05-19T10:43:07.455Z,9.85
2023-05-19T10:45:45.850Z,9.98
2023-05-19T10:48:16.645Z,9.70
2023-05-19T10:50:46.614Z,13.57
2023-05-19T10:53:18.341Z,14.88
2023-05-19T10:55:56.632Z,13.98
2023-05-19T10:58:49.881Z,9.27
2023-05-19T11:01:19.129Z,8.63
2023-05-19T11:03:49.600Z,12.98
2023-05-19T11:06:22.684Z,12.48
2023-05-19T11:08:55.337Z,8.60
2023-05-19T11:11:26.305Z,8.77
2023-05-19T11:13:56.120Z,11.80
2023-05-19T11:16:32.477Z,9.98
2023-05-19T11:19:01.979Z,13.18
2023-05-19T11:21:50.482Z,9.70
2023-05-19T11:24:35.830Z,12.10
2023-05-19T11:27:23.831Z,12.15
2023-05-19T11:29:53.739Z,11.52
2023-05-19T11:32:23.115Z,13.98
2023-05-19T11:34:52.096Z,13.50
2023-05-19T11:37:20.885Z,10.07
2023-05-19T11:39:49.546Z,15.35
2023-05-19T11:42:18.016Z,12.98
2023-05-19T11:44:48.210Z,15.15
2023-05-19T11:47:17.552Z,11.02
2023-05-19T11:49:46.666Z,9.13
2023-05-19T11:52:15.548Z,12.43
2023-05-19T11:54:44.211Z,10.77
2023-05-19T11:57:13.947Z,12.15
2023-05-19T11:59:45.587Z,14.02
2023-05-19T12:02:23.009Z,13.30
2023-05-19T12:04:53.028Z,20.80
2023-05-19T12:07:23.883Z,14.63
2023-05-19T12:09:53.623Z,13.93
2023-05-19T12:12:23.734Z,11.82
2023-05-19T12:14:53.605Z,11.18
2023-05-19T12:17:24.335Z,11.40
2023-05-19T12:19:53.485Z,15.35
2023-05-19T12:22:21.968Z,10.98
2023-05-19T12:24:51.722Z,9.70
2023-05-19T12:27:21.381Z,23.55
2023-05-19T12:29:53.723Z,13.05
2023-05-19T12:32:29.230Z,13.15
2023-05-19T12:34:58.508Z,13.00
2023-05-19T12:37:29.987Z,13.68
2023-05-19T12:39:59.344Z,14.82
2023-05-19T12:42:31.378Z,9.65
2023-05-19T12:45:03.166Z,11.20
2023-05-19T12:47:35.855Z,14.07
2023-05-19T12:50:07.980Z,8.20
2023-05-19T12:52:42.789Z,9.90
2023-05-19T12:55:12.432Z,14.38
2023-05-19T12:57:44.227Z,13.38
2023-05-19T13:00:17.499Z,10.07
2023-05-19T13:03:05.281Z,10.52
2023-05-19T13:05:36.947Z,13.07
2023-05-19T13:08:07.699Z,13.90
2023-05-19T13:10:37.615Z,17.30
2023-05-19T13:13:06.789Z,20.05
2023-05-19T13:15:37.888Z,15.32
2023-05-19T13:18:09.594Z,11.25
2023-05-19T13:20:39.550Z,14.65
2023-05-19T13:23:07.927Z,12.20
2023-05-19T13:25:36.646Z,13.65
2023-05-19T13:28:05.964Z,15.38
2023-05-19T13:30:35.659Z,11.27
2023-05-19T13:33:04.328Z,12.25
2023-05-19T13:35:37.209Z,15.68
2023-05-19T13:38:06.797Z,9.15
2023-05-19T13:40:35.774Z,10.13
2023-05-19T13:43:04.940Z,14.60
2023-05-19T13:45:33.471Z,14.35
2023-05-19T13:48:02.141Z,14.32
2023-05-19T13:50:30.828Z,18.75
2023-05-19T13:53:00.705Z,13.43
2023-05-19T13:55:29.342Z,17.15
2023-05-19T13:57:57.829Z,16.83
2023-05-19T14:00:26.572Z,11.57
2023-05-19T14:02:55.023Z,16.92
2023-05-19T14:05:23.649Z,15.90
2023-05-19T14:07:52.131Z,16.23
2023-05-19T14:10:22.722Z,17.15
2023-05-19T14:13:18.390Z,16.90
2023-05-19T14:15:39.792Z,11.32
2023-05-19T14:18:08.180Z,14.50
2023-05-19T14:20:36.794Z,25.25
2023-05-19T14:23:05.326Z,32.10
2023-05-19T14:25:35.698Z,32.38
2023-05-19T14:28:03.998Z,44.13
2023-05-19T14:30:32.752Z,20.27
2023-05-19T14:33:01.357Z,37.28
2023-05-19T14:35:30.415Z,27.85
2023-05-19T14:37:58.884Z,16.55
2023-05-19T14:40:27.481Z,20.90
2023-05-19T14:42:57.289Z,34.75
2023-05-19T14:45:25.841Z,15.43
2023-05-19T14:47:54.067Z,16.70
2023-05-19T14:50:22.948Z,17.48
2023-05-19T14:52:51.468Z,26.27
2023-05-19T14:55:20.111Z,21.08
2023-05-19T14:57:48.574Z,15.00
2023-05-19T15:00:19.116Z,19.38
2023-05-19T15:02:47.897Z,13.85
2023-05-19T15:05:17.310Z,14.85
2023-05-19T15:07:45.736Z,18.23
2023-05-19T15:10:14.377Z,11.23
2023-05-19T15:12:42.863Z,17.70
2023-05-19T15:15:12.299Z,19.77
2023-05-19T15:17:42.083Z,16.65
2023-05-19T15:20:11.514Z,18.42
2023-05-19T15:22:39.749Z,12.32
2023-05-19T15:25:09.987Z,14.55
2023-05-19T15:27:38.293Z,13.20
2023-05-19T15:30:07.812Z,16.70
2023-05-19T15:32:36.176Z,15.68
2023-05-19T15:35:06.882Z,19.52
2023-05-19T15:37:35.119Z,18.90
2023-05-19T15:40:04.559Z,12.10
2023-05-19T15:42:32.763Z,13.02
2023-05-19T15:45:01.366Z,20.17
2023-05-19T15:47:29.881Z,19.55
2023-05-19T15:49:58.664Z,15.07
2023-05-19T15:52:29.198Z,18.90
2023-05-19T15:54:59.118Z,14.98
2023-05-19T15:57:27.424Z,19.35
2023-05-19T15:59:56.044Z,19.08
2023-05-19T16:02:24.476Z,19.50
2023-05-19T16:04:53.097Z,23.38
2023-05-19T16:07:23.704Z,20.95
2023-05-19T16:09:53.979Z,15.00
2023-05-19T16:12:22.286Z,16.75
2023-05-19T16:14:51.107Z,16.48
2023-05-19T16:17:19.550Z,15.73
2023-05-19T16:19:48.250Z,16.67
2023-05-19T16:22:18.041Z,18.13
2023-05-19T16:24:46.695Z,21.48
2023-05-19T16:27:16.457Z,13.30
2023-05-19T16:29:45.171Z,17.63
2023-05-19T16:32:13.694Z,15.55
2023-05-19T16:34:42.246Z,13.93
2023-05-19T16:37:10.694Z,17.25
2023-05-19T16:39:40.174Z,13.52
2023-05-19T16:42:08.568Z,15.55
2023-05-19T16:44:38.527Z,11.57
2023-05-19T16:47:06.850Z,16.52
2023-05-19T16:49:35.603Z,13.00
2023-05-19T16:52:04.031Z,21.27
2023-05-19T16:54:32.595Z,19.75
2023-05-19T16:57:01.030Z,15.27
2023-05-19T16:59:29.943Z,20.50
2023-05-19T17:01:59.563Z,18.23
2023-05-19T17:04:30.649Z,15.48
2023-05-19T17:06:59.292Z,15.73
2023-05-19T17:09:27.956Z,19.02
2023-05-19T17:11:56.555Z,12.50
2023-05-19T17:14:25.335Z,18.10
2023-05-19T17:16:53.793Z,20.00
2023-05-19T17:19:24.008Z,17.35
2023-05-19T17:21:52.959Z,14.98
2023-05-19T17:24:21.825Z,17.52
2023-05-19T17:26:50.302Z,21.48
2023-05-19T17:29:19.168Z,19.27
2023-05-19T17:31:47.550Z,25.33
2023-05-19T17:34:16.427Z,15.02
2023-05-19T17:36:46.221Z,18.13
2023-05-19T17:39:14.951Z,24.77
2023-05-19T17:41:43.723Z,13.25
2023-05-19T17:44:12.927Z,18.92
2023-05-19T17:46:41.326Z,22.25
2023-05-19T17:49:10.578Z,23.83
2023-05-19T17:51:39.787Z,21.65
2023-05-19T17:54:10.568Z,24.23
2023-05-19T17:56:43.149Z,20.30
2023-05-19T17:59:12.835Z,16.05
2023-05-19T18:01:41.724Z,21.58
2023-05-19T18:04:12.612Z,28.80
2023-05-19T18:06:45.174Z,32.40
2023-05-19T18:09:17.828Z,36.75
2023-05-19T18:11:46.763Z,37.42
2023-05-19T18:14:16.382Z,21.65
2023-05-19T18:16:45.026Z,24.35
2023-05-19T18:19:13.708Z,16.42
2023-05-19T18:21:42.444Z,15.30
2023-05-19T18:24:11.361Z,24.92
2023-05-19T18:26:42.071Z,12.40
2023-05-19T18:29:11.060Z,9.68
2023-05-19T18:31:39.678Z,16.60
2023-05-19T18:34:08.792Z,11.20
2023-05-19T18:36:37.207Z,13.60
2023-05-19T18:39:05.987Z,18.70
2023-05-19T18:41:34.405Z,10.30
2023-05-19T18:44:06.250Z,14.32
2023-05-19T18:46:34.888Z,18.80
2023-05-19T18:49:04.333Z,14.40
2023-05-19T18:51:33.540Z,10.82
2023-05-19T18:54:03.037Z,10.68
2023-05-19T18:56:32.011Z,15.45
2023-05-19T18:59:00.849Z,13.77
2023-05-19T19:01:30.737Z,11.82
2023-05-19T19:03:59.592Z,16.60
2023-05-19T19:06:28.171Z,20.90
2023-05-19T19:08:56.864Z,14.80
2023-05-19T19:11:25.221Z,27.98
2023-05-19T19:13:55.517Z,34.28
2023-05-19T19:16:24.257Z,15.00
2023-05-19T19:18:54.520Z,18.05
2023-05-19T19:21:24.069Z,17.33
2023-05-19T19:23:54.866Z,22.13
2023-05-19T19:26:25.012Z,30.27
2023-05-19T19:28:54.234Z,22.30
2023-05-19T19:31:22.767Z,15.70
2023-05-19T19:33:51.387Z,18.08
2023-05-19T19:36:21.272Z,12.70
2023-05-19T19:38:50.115Z,15.85
2023-05-19T19:41:19.820Z,16.55
2023-05-19T19:43:48.595Z,15.68
2023-05-19T19:46:17.084Z,16.92
2023-05-19T19:48:45.937Z,17.05
2023-05-19T19:51:14.449Z,17.95
2023-05-19T19:53:44.750Z,20.20
2023-05-19T19:56:13.317Z,24.48
2023-05-19T19:58:42.043Z,22.65
2023-05-19T20:01:10.958Z,15.15
2023-05-19T20:03:39.671Z,19.20
2023-05-19T20:06:08.518Z,36.65
2023-05-19T20:08:37.359Z,26.55
2023-05-19T20:11:07.325Z,21.48
2023-05-19T20:13:36.034Z,16.20
2023-05-19T20:16:04.530Z,14.68
2023-05-19T20:18:33.212Z,18.13
2023-05-19T20:21:01.497Z,15.05
2023-05-19T20:23:31.157Z,15.23
2023-05-19T20:26:11.988Z,15.65
2023-05-19T20:28:43.294Z,15.45
2023-05-19T20:31:11.850Z,18.35
2023-05-19T20:33:40.627Z,19.00
2023-05-19T20:36:10.928Z,21.88
2023-05-19T20:38:39.663Z,17.95
2023-05-19T20:41:08.282Z,25.38
2023-05-19T20:43:36.927Z,19.85
2023-05-19T20:46:06.684Z,21.90
2023-05-19T20:48:35.426Z,28.70
2023-05-19T20:51:03.945Z,25.73
2023-05-19T20:53:32.412Z,30.05
2023-05-19T20:56:00.675Z,27.75
2023-05-19T20:58:30.346Z,23.67
2023-05-19T21:00:58.952Z,29.42
2023-05-19T21:03:30.435Z,29.95
2023-05-19T21:05:59.545Z,30.35
2023-05-19T21:08:28.332Z,29.08
2023-05-19T21:10:56.739Z,33.80
2023-05-19T21:13:25.405Z,21.60
2023-05-19T21:15:53.841Z,22.42
2023-05-19T21:18:22.598Z,29.73
2023-05-19T21:20:52.312Z,23.95
2023-05-19T21:23:21.091Z,30.30
2023-05-19T21:25:50.867Z,28.70
2023-05-19T21:28:19.738Z,25.90
2023-05-19T21:30:49.455Z,22.33
2023-05-19T21:33:18.284Z,36.70
2023-05-19T21:35:47.193Z,30.27
2023-05-19T21:38:23.979Z,20.02
2023-05-19T21:40:53.369Z,28.88
2023-05-19T21:43:22.519Z,23.98
2023-05-19T21:45:51.067Z,28.90
2023-05-19T21:48:19.753Z,31.27
2023-05-19T21:50:53.531Z,26.33
2023-05-19T21:53:23.624Z,22.60
2023-05-19T21:55:52.126Z,27.48
2023-05-19T21:58:20.952Z,29.23
2023-05-19T22:00:50.627Z,26.08
2023-05-19T22:03:19.366Z,23.45
2023-05-19T22:05:50.080Z,28.38
2023-05-19T22:08:19.667Z,30.65
2023-05-19T22:10:51.815Z,36.42
2023-05-19T22:13:20.798Z,30.83
2023-05-19T22:15:49.191Z,30.40
2023-05-19T22:18:18.184Z,32.40
2023-05-19T22:20:46.430Z,33.13
2023-05-19T22:23:15.067Z,22.98
2023-05-19T22:25:43.342Z,26.80
2023-05-19T22:28:13.468Z,34.13
2023-05-19T22:30:42.701Z,29.23
2023-05-19T22:33:11.973Z,38.63
2023-05-19T22:35:40.859Z,33.10
2023-05-19T22:38:10.687Z,27.02
2023-05-19T22:40:39.664Z,34.30
2023-05-19T22:43:08.158Z,45.63
2023-05-19T22:45:37.999Z,26.90
2023-05-19T22:48:07.788Z,29.60
2023-05-19T22:50:36.364Z,27.33
2023-05-19T22:53:05.053Z,30.58
2023-05-19T22:55:33.533Z,25.85
2023-05-19T22:58:02.603Z,33.00
2023-05-19T23:00:31.027Z,22.95
2023-05-19T23:03:01.415Z,44.30
2023-05-19T23:05:29.732Z,25.75
2023-05-19T23:07:58.347Z,31.98
2023-05-19T23:10:27.153Z,28.08
2023-05-19T23:12:56.034Z,23.63
2023-05-19T23:15:24.360Z,23.83
2023-05-19T23:17:53.052Z,32.50
2023-05-19T23:20:22.713Z,38.70
2023-05-19T23:22:51.389Z,30.88
2023-05-19T23:25:19.937Z,26.67
2023-05-19T23:27:48.557Z,35.65
2023-05-19T23:30:17.075Z,27.05
2023-05-19T23:32:45.646Z,33.70
2023-05-19T23:35:15.265Z,44.28
2023-05-19T23:37:45.281Z,22.02
2023-05-19T23:40:14.216Z,52.80
2023-05-19T23:42:44.584Z,33.05
2023-05-19T23:45:13.120Z,31.02
2023-05-19T23:47:41.882Z,36.08
2023-05-19T23:50:11.395Z,28.25
2023-05-19T23:52:39.851Z,31.73
2023-05-19T23:55:12.685Z,33.95
2023-05-19T23:57:41.340Z,95.60
